createdAt,value
2023-02-23T00:02:08.569Z,9.93
2023-02-23T00:04:36.775Z,9.93
2023-02-23T00:07:06.384Z,9.88
2023-02-23T00:09:36.457Z,9.92
2023-02-23T00:12:09.745Z,9.93
2023-02-23T00:14:38.289Z,9.94
2023-02-23T00:17:14.150Z,9.90
2023-02-23T00:19:43.515Z,9.89
2023-02-23T00:22:11.965Z,9.92
2023-02-23T00:24:40.620Z,9.90
2023-02-23T00:27:07.924Z,9.87
2023-02-23T00:29:39.633Z,9.90
2023-02-23T00:32:07.451Z,9.92
2023-02-23T00:34:36.668Z,9.93
2023-02-23T00:37:04.377Z,9.94
2023-02-23T00:39:31.690Z,9.92
2023-02-23T00:42:02.840Z,9.92
2023-02-23T00:44:32.414Z,9.93
2023-02-23T00:47:03.153Z,9.95
2023-02-23T00:49:30.411Z,9.92
2023-02-23T00:51:57.665Z,9.92
2023-02-23T00:54:25.446Z,9.97
2023-02-23T00:56:52.772Z,9.96
2023-02-23T00:59:20.633Z,9.97
2023-02-23T01:01:48.210Z,10.01
2023-02-23T01:04:16.687Z,10.01
2023-02-23T01:06:43.961Z,10.04
2023-02-23T01:09:14.606Z,10.05
2023-02-23T01:11:42.354Z,10.07
2023-02-23T01:14:10.882Z,10.05
2023-02-23T01:16:39.056Z,10.06
2023-02-23T01:19:07.045Z,10.06
2023-02-23T01:21:37.434Z,10.09
2023-02-23T01:24:05.951Z,10.09
2023-02-23T01:26:38.929Z,10.06
2023-02-23T01:29:13.935Z,10.02
2023-02-23T01:31:44.095Z,10.01
2023-02-23T01:34:13.572Z,9.98
2023-02-23T01:36:43.670Z,10.00
2023-02-23T01:39:17.609Z,9.98
2023-02-23T01:41:45.340Z,9.98
2023-02-23T01:44:12.590Z,9.98
2023-02-23T01:46:45.229Z,9.98
2023-02-23T01:49:25.687Z,9.99
2023-02-23T01:52:11.371Z,10.02
2023-02-23T01:54:58.914Z,10.01
2023-02-23T01:57:27.872Z,9.97
2023-02-23T01:59:55.770Z,9.98
2023-02-23T02:02:33.772Z,10.00
2023-02-23T02:05:05.346Z,9.99
2023-02-23T02:07:35.172Z,10.06
2023-02-23T02:10:12.211Z,10.05
2023-02-23T02:12:53.772Z,10.05
2023-02-23T02:15:26.025Z,10.04
2023-02-23T02:18:30.738Z,9.98
2023-02-23T02:21:04.680Z,9.96
2023-02-23T02:23:51.757Z,9.97
2023-02-23T02:26:31.510Z,10.01
2023-02-23T02:29:26.285Z,10.00
2023-02-23T02:32:29.298Z,9.98
2023-02-23T02:35:08.693Z,10.01
2023-02-23T02:37:45.052Z,10.03
2023-02-23T02:40:53.421Z,10.10
2023-02-23T02:43:50.973Z,10.02
2023-02-23T02:46:27.402Z,10.02
2023-02-23T02:49:03.326Z,9.89
2023-02-23T02:51:39.657Z,9.82
2023-02-23T02:54:28.934Z,9.88
2023-02-23T02:57:00.416Z,9.95
2023-02-23T02:59:46.659Z,9.96
2023-02-23T03:02:37.033Z,9.92
2023-02-23T03:05:33.904Z,9.89
2023-02-23T03:08:27.158Z,9.88
2023-02-23T03:11:39.261Z,9.90
2023-02-23T03:14:56.462Z,9.94
2023-02-23T03:18:05.401Z,9.94
2023-02-23T03:20:51.239Z,9.93
2023-02-23T03:23:46.087Z,9.86
2023-02-23T03:26:47.339Z,9.97
2023-02-23T03:30:10.936Z,9.93
2023-02-23T03:33:11.099Z,10.01
2023-02-23T03:36:10.310Z,9.97
2023-02-23T03:39:34.829Z,9.98
2023-02-23T03:42:25.773Z,9.95
2023-02-23T03:45:14.201Z,9.92
2023-02-23T03:48:02.188Z,9.84
2023-02-23T03:50:56.207Z,9.83
2023-02-23T03:53:49.601Z,9.79
2023-02-23T03:56:39.576Z,9.78
2023-02-23T03:59:27.786Z,9.72
2023-02-23T04:02:15.375Z,9.68
2023-02-23T04:05:04.895Z,9.61
2023-02-23T04:07:53.085Z,9.67
2023-02-23T04:10:41.319Z,9.64
2023-02-23T04:13:14.588Z,9.72
2023-02-23T04:15:55.659Z,9.73
2023-02-23T04:18:26.248Z,9.64
2023-02-23T04:20:54.686Z,9.63
2023-02-23T04:23:23.276Z,9.64
2023-02-23T04:25:52.201Z,9.60
2023-02-23T04:28:21.112Z,9.54
2023-02-23T04:30:48.461Z,9.50
2023-02-23T04:33:15.960Z,9.42
2023-02-23T04:35:43.206Z,9.37
2023-02-23T04:38:10.706Z,9.36
2023-02-23T04:40:37.973Z,9.38
2023-02-23T04:43:05.275Z,9.39
2023-02-23T04:45:32.546Z,9.37
2023-02-23T04:47:59.834Z,9.43
2023-02-23T04:50:28.206Z,9.49
2023-02-23T04:52:55.429Z,9.52
2023-02-23T04:55:24.778Z,9.53
2023-02-23T04:57:56.680Z,9.58
2023-02-23T05:00:26.996Z,9.64
2023-02-23T05:02:54.255Z,9.61
2023-02-23T05:05:21.580Z,9.58
2023-02-23T05:07:48.844Z,9.63
2023-02-23T05:10:16.150Z,9.65
2023-02-23T05:12:43.492Z,9.68
2023-02-23T05:15:11.116Z,9.64
2023-02-23T05:17:41.945Z,9.61
2023-02-23T05:20:11.210Z,9.60
2023-02-23T05:22:41.663Z,9.62
2023-02-23T05:25:10.144Z,9.67
2023-02-23T05:27:38.401Z,9.57
2023-02-23T05:30:10.576Z,9.54
2023-02-23T05:32:40.499Z,9.54
2023-02-23T05:35:09.000Z,9.48
2023-02-23T05:37:36.740Z,9.46
2023-02-23T05:40:07.339Z,9.48
2023-02-23T05:42:34.712Z,9.54
2023-02-23T05:45:01.981Z,9.59
2023-02-23T05:47:32.108Z,9.62
2023-02-23T05:49:59.576Z,9.64
2023-02-23T05:52:27.108Z,9.65
2023-02-23T05:54:55.152Z,9.59
2023-02-23T05:57:22.466Z,9.57
2023-02-23T05:59:49.792Z,9.54
2023-02-23T06:02:17.233Z,9.53
2023-02-23T06:04:44.879Z,9.51
2023-02-23T06:07:12.713Z,9.48
2023-02-23T06:09:42.377Z,9.46
2023-02-23T06:12:10.803Z,9.48
2023-02-23T06:14:38.070Z,9.47
2023-02-23T06:17:05.781Z,9.47
2023-02-23T06:19:33.451Z,9.49
2023-02-23T06:22:00.703Z,9.52
2023-02-23T06:24:28.341Z,9.50
2023-02-23T06:26:55.986Z,9.51
2023-02-23T06:29:23.385Z,9.51
2023-02-23T06:31:50.704Z,9.50
2023-02-23T06:34:18.832Z,9.50
2023-02-23T06:36:47.302Z,9.51
2023-02-23T06:39:14.545Z,9.57
2023-02-23T06:41:42.078Z,9.56
2023-02-23T06:44:09.447Z,9.58
2023-02-23T06:46:37.993Z,9.63
2023-02-23T06:49:05.424Z,9.59
2023-02-23T06:51:33.086Z,9.58
2023-02-23T06:54:00.477Z,9.68
2023-02-23T06:56:27.764Z,9.69
2023-02-23T06:58:55.074Z,9.66
2023-02-23T07:01:22.334Z,9.65
2023-02-23T07:03:49.665Z,9.74
2023-02-23T07:06:16.954Z,9.78
2023-02-23T07:08:44.824Z,9.82
2023-02-23T07:11:16.081Z,9.83
2023-02-23T07:13:43.401Z,9.84
2023-02-23T07:16:11.131Z,9.86
2023-02-23T07:18:38.573Z,9.83
2023-02-23T07:21:06.252Z,9.83
2023-02-23T07:23:36.348Z,9.83
2023-02-23T07:26:03.668Z,9.92
2023-02-23T07:28:31.050Z,9.93
2023-02-23T07:30:59.262Z,10.03
2023-02-23T07:33:26.916Z,10.14
2023-02-23T07:35:54.205Z,10.17
2023-02-23T07:38:21.526Z,10.26
2023-02-23T07:40:50.751Z,10.16
2023-02-23T07:43:18.417Z,10.17
2023-02-23T07:45:46.679Z,10.20
2023-02-23T07:48:14.676Z,10.25
2023-02-23T07:50:42.693Z,10.21
2023-02-23T07:53:13.995Z,10.23
2023-02-23T07:55:41.315Z,10.23
2023-02-23T07:58:09.031Z,10.34
2023-02-23T08:00:38.862Z,10.36
2023-02-23T08:03:07.216Z,10.36
2023-02-23T08:05:34.455Z,10.42
2023-02-23T08:08:01.717Z,10.48
2023-02-23T08:10:28.985Z,10.53
2023-02-23T08:12:57.975Z,10.57
2023-02-23T08:15:25.419Z,10.61
2023-02-23T08:17:52.753Z,10.60
2023-02-23T08:20:20.158Z,10.60
2023-02-23T08:22:50.008Z,10.63
2023-02-23T08:25:18.144Z,10.62
2023-02-23T08:27:46.484Z,10.73
2023-02-23T08:30:14.635Z,10.79
2023-02-23T08:32:42.931Z,10.91
2023-02-23T08:35:10.659Z,11.07
2023-02-23T08:37:37.933Z,11.07
2023-02-23T08:40:07.708Z,11.13
2023-02-23T08:42:35.207Z,11.18
2023-02-23T08:45:02.674Z,11.25
2023-02-23T08:47:30.031Z,11.28
2023-02-23T08:49:57.334Z,11.22
2023-02-23T08:52:25.400Z,11.25
2023-02-23T08:54:52.701Z,11.29
2023-02-23T08:57:19.968Z,11.38
2023-02-23T08:59:50.234Z,11.37
2023-02-23T09:02:17.833Z,11.42
2023-02-23T09:04:45.223Z,11.45
2023-02-23T09:07:17.708Z,11.52
2023-02-23T09:09:45.019Z,11.46
2023-02-23T09:12:12.253Z,11.48
2023-02-23T09:14:40.428Z,11.56
2023-02-23T09:17:07.737Z,11.66
2023-02-23T09:19:35.038Z,11.64
2023-02-23T09:22:02.353Z,11.75
2023-02-23T09:24:29.628Z,11.67
2023-02-23T09:26:56.859Z,11.50
2023-02-23T09:29:24.477Z,11.59
2023-02-23T09:31:58.306Z,11.56
2023-02-23T09:34:26.214Z,11.55
2023-02-23T09:36:55.689Z,11.64
2023-02-23T09:39:36.937Z,11.64
2023-02-23T09:42:16.496Z,11.60
2023-02-23T09:44:46.668Z,11.60
2023-02-23T09:47:30.587Z,11.58
2023-02-23T09:50:00.347Z,11.68
2023-02-23T09:52:36.712Z,11.79
2023-02-23T09:55:04.744Z,11.81
2023-02-23T09:57:43.731Z,11.85
2023-02-23T10:00:27.833Z,11.86
2023-02-23T10:03:39.870Z,11.89
2023-02-23T10:06:11.311Z,11.93
2023-02-23T10:08:41.428Z,12.04
2023-02-23T10:11:23.791Z,11.68
2023-02-23T10:14:09.968Z,11.89
2023-02-23T10:17:01.759Z,11.89
2023-02-23T10:19:53.355Z,11.85
2023-02-23T10:22:21.219Z,11.93
2023-02-23T10:24:56.861Z,11.93
2023-02-23T10:27:30.364Z,11.97
2023-02-23T10:30:02.015Z,12.13
2023-02-23T10:32:43.714Z,12.00
2023-02-23T10:35:16.835Z,12.04
2023-02-23T10:37:45.203Z,12.06
2023-02-23T10:40:23.394Z,11.99
2023-02-23T10:42:52.214Z,12.06
2023-02-23T10:45:24.721Z,12.13
2023-02-23T10:47:54.332Z,12.06
2023-02-23T10:50:22.965Z,12.08
2023-02-23T10:52:55.050Z,12.25
2023-02-23T10:55:27.505Z,12.16
2023-02-23T10:58:17.067Z,12.14
2023-02-23T11:00:56.889Z,12.30
2023-02-23T11:03:24.486Z,12.22
2023-02-23T11:05:53.658Z,12.19
2023-02-23T11:08:23.992Z,12.35
2023-02-23T11:10:59.293Z,12.43
2023-02-23T11:13:29.104Z,12.39
2023-02-23T11:16:17.032Z,12.38
2023-02-23T11:18:56.520Z,12.43
2023-02-23T11:21:33.808Z,12.46
2023-02-23T11:24:16.753Z,12.58
2023-02-23T11:26:45.963Z,12.27
2023-02-23T11:29:27.120Z,12.42
2023-02-23T11:31:58.396Z,12.55
2023-02-23T11:34:32.290Z,12.56
2023-02-23T11:37:20.128Z,12.65
2023-02-23T11:39:55.439Z,12.50
2023-02-23T11:42:25.469Z,12.57
2023-02-23T11:45:02.705Z,12.53
2023-02-23T11:47:31.913Z,12.81
2023-02-23T11:50:03.320Z,12.79
2023-02-23T11:52:31.347Z,13.14
2023-02-23T11:55:02.906Z,13.05
2023-02-23T11:57:35.088Z,13.11
2023-02-23T12:00:11.181Z,13.00
2023-02-23T12:03:06.786Z,12.63
2023-02-23T12:05:34.239Z,12.71
2023-02-23T12:08:17.341Z,12.74
2023-02-23T12:10:51.767Z,12.98
2023-02-23T12:13:32.730Z,13.10
2023-02-23T12:16:06.180Z,13.17
2023-02-23T12:18:47.269Z,13.00
2023-02-23T12:21:29.608Z,13.21
2023-02-23T12:24:18.045Z,13.44
2023-02-23T12:26:54.956Z,13.44
2023-02-23T12:30:13.505Z,13.37
2023-02-23T12:32:49.170Z,13.44
2023-02-23T12:35:24.305Z,13.61
2023-02-23T12:37:55.635Z,13.52
2023-02-23T12:40:30.103Z,13.67
2023-02-23T12:43:30.502Z,13.74
2023-02-23T12:46:15.983Z,13.71
2023-02-23T12:49:22.216Z,13.76
2023-02-23T12:51:53.281Z,14.00
2023-02-23T12:54:20.652Z,13.70
2023-02-23T12:56:54.568Z,13.73
2023-02-23T12:59:46.484Z,13.81
2023-02-23T13:02:36.942Z,13.52
2023-02-23T13:05:22.603Z,13.44
2023-02-23T13:08:01.919Z,13.37
2023-02-23T13:10:41.469Z,13.30
2023-02-23T13:13:43.796Z,13.36
2023-02-23T13:16:14.000Z,13.39
2023-02-23T13:18:59.563Z,13.30
2023-02-23T13:21:28.674Z,13.38
2023-02-23T13:24:01.339Z,13.48
2023-02-23T13:26:40.628Z,13.38
2023-02-23T13:29:23.077Z,13.33
2023-02-23T13:31:50.957Z,13.40
2023-02-23T13:34:27.854Z,13.47
2023-02-23T13:36:56.234Z,13.35
2023-02-23T13:39:55.651Z,13.20
2023-02-23T13:43:01.068Z,13.25
2023-02-23T13:45:56.329Z,13.24
2023-02-23T13:48:47.303Z,13.36
2023-02-23T13:51:39.675Z,13.21
2023-02-23T13:54:13.133Z,13.13
2023-02-23T13:56:48.522Z,13.06
2023-02-23T13:59:26.281Z,13.01
2023-02-23T14:01:56.953Z,12.96
2023-02-23T14:04:25.867Z,12.90
2023-02-23T14:07:03.776Z,12.95
2023-02-23T14:09:36.634Z,13.11
2023-02-23T14:12:19.288Z,13.02
2023-02-23T14:14:46.997Z,12.98
2023-02-23T14:17:14.138Z,13.03
2023-02-23T14:20:00.364Z,13.00
2023-02-23T14:22:30.065Z,12.95
2023-02-23T14:25:34.627Z,12.87
2023-02-23T14:28:21.885Z,12.92
2023-02-23T14:31:11.461Z,12.98
2023-02-23T14:33:41.729Z,12.85
2023-02-23T14:36:23.899Z,12.87
2023-02-23T14:39:01.371Z,12.92
2023-02-23T14:41:36.653Z,12.95
2023-02-23T14:44:28.437Z,13.01
2023-02-23T14:47:17.711Z,12.93
2023-02-23T14:49:49.040Z,12.97
2023-02-23T14:52:29.777Z,12.89
2023-02-23T14:55:11.939Z,12.95
2023-02-23T14:57:42.708Z,12.93
2023-02-23T15:00:23.032Z,12.94
2023-02-23T15:03:12.835Z,12.82
2023-02-23T15:06:06.270Z,12.76
2023-02-23T15:08:38.596Z,12.75
2023-02-23T15:11:14.434Z,12.72
2023-02-23T15:13:50.347Z,12.69
2023-02-23T15:16:31.783Z,12.72
2023-02-23T15:19:03.078Z,12.79
2023-02-23T15:21:33.664Z,12.77
2023-02-23T15:24:11.581Z,12.70
2023-02-23T15:26:40.769Z,12.75
2023-02-23T15:29:10.798Z,12.76
2023-02-23T15:31:40.963Z,12.73
2023-02-23T15:34:11.849Z,12.72
2023-02-23T15:36:41.301Z,12.63
2023-02-23T15:39:17.382Z,12.73
2023-02-23T15:41:48.417Z,12.65
2023-02-23T15:44:27.532Z,12.63
2023-02-23T15:47:04.622Z,12.48
2023-02-23T15:49:35.911Z,12.47
2023-02-23T15:52:09.513Z,12.44
2023-02-23T15:54:39.014Z,12.42
2023-02-23T15:57:15.674Z,12.34
2023-02-23T15:59:49.296Z,12.39
2023-02-23T16:02:19.526Z,12.42
2023-02-23T16:04:52.751Z,12.46
2023-02-23T16:07:26.921Z,12.43
2023-02-23T16:10:20.859Z,12.36
2023-02-23T16:12:52.825Z,12.32
2023-02-23T16:15:23.042Z,12.31
2023-02-23T16:17:59.576Z,12.23
2023-02-23T16:20:26.786Z,12.23
2023-02-23T16:22:54.930Z,12.11
2023-02-23T16:25:26.690Z,12.08
2023-02-23T16:28:04.765Z,12.04
2023-02-23T16:30:32.255Z,11.99
2023-02-23T16:33:29.774Z,11.98
2023-02-23T16:36:15.356Z,11.94
2023-02-23T16:38:57.828Z,11.92
2023-02-23T16:41:27.890Z,11.91
2023-02-23T16:43:57.958Z,11.90
2023-02-23T16:46:30.427Z,11.88
2023-02-23T16:49:05.210Z,11.85
2023-02-23T16:51:34.667Z,11.81
2023-02-23T16:54:04.053Z,11.78
2023-02-23T16:56:31.943Z,11.78
2023-02-23T16:59:02.733Z,11.75
2023-02-23T17:01:30.086Z,11.74
2023-02-23T17:03:59.091Z,11.71
2023-02-23T17:06:26.402Z,11.67
2023-02-23T17:08:58.491Z,11.67
2023-02-23T17:11:26.895Z,11.64
2023-02-23T17:13:54.207Z,11.62
2023-02-23T17:16:21.772Z,11.59
2023-02-23T17:18:49.370Z,11.59
2023-02-23T17:21:23.515Z,11.58
2023-02-23T17:23:52.556Z,11.56
2023-02-23T17:26:24.705Z,11.55
2023-02-23T17:28:53.866Z,11.52
2023-02-23T17:31:23.556Z,11.52
2023-02-23T17:33:53.683Z,11.50
2023-02-23T17:36:21.296Z,11.48
2023-02-23T17:38:48.679Z,11.47
2023-02-23T17:41:18.541Z,11.44
2023-02-23T17:43:46.038Z,11.45
2023-02-23T17:46:13.825Z,11.47
2023-02-23T17:48:44.598Z,11.45
2023-02-23T17:51:13.229Z,11.47
2023-02-23T17:53:40.693Z,11.43
2023-02-23T17:56:09.396Z,11.39
2023-02-23T17:58:38.054Z,11.35
2023-02-23T18:01:07.145Z,11.31
2023-02-23T18:03:37.330Z,11.25
2023-02-23T18:06:06.359Z,11.19
2023-02-23T18:08:34.432Z,11.15
2023-02-23T18:11:02.482Z,11.10
2023-02-23T18:13:31.213Z,11.08
2023-02-23T18:16:04.184Z,11.09
2023-02-23T18:18:32.198Z,11.02
2023-02-23T18:21:00.564Z,11.02
2023-02-23T18:23:32.447Z,11.05
2023-02-23T18:26:09.094Z,11.01
2023-02-23T18:28:37.496Z,10.95
2023-02-23T18:31:05.306Z,10.96
2023-02-23T18:33:35.917Z,10.96
2023-02-23T18:36:04.187Z,10.95
2023-02-23T18:38:31.478Z,10.88
2023-02-23T18:40:58.822Z,10.85
2023-02-23T18:43:27.353Z,10.78
2023-02-23T18:45:56.047Z,10.78
2023-02-23T18:48:23.549Z,10.74
2023-02-23T18:50:56.482Z,10.70
2023-02-23T18:53:23.833Z,10.63
2023-02-23T18:55:51.220Z,10.58
2023-02-23T18:58:19.785Z,10.54
2023-02-23T19:00:47.673Z,10.51
2023-02-23T19:03:15.009Z,10.48
2023-02-23T19:05:53.051Z,10.48
2023-02-23T19:08:20.890Z,10.43
2023-02-23T19:10:49.625Z,10.40
2023-02-23T19:13:22.191Z,10.40
2023-02-23T19:15:50.109Z,10.37
2023-02-23T19:18:17.429Z,10.37
2023-02-23T19:20:44.808Z,10.34
2023-02-23T19:23:13.187Z,10.31
2023-02-23T19:25:40.464Z,10.31
2023-02-23T19:28:10.561Z,10.30
2023-02-23T19:30:39.986Z,10.28
2023-02-23T19:33:08.206Z,10.22
2023-02-23T19:35:39.413Z,10.17
2023-02-23T19:38:11.044Z,10.18
2023-02-23T19:40:42.604Z,10.16
2023-02-23T19:43:11.821Z,10.07
2023-02-23T19:45:43.208Z,9.99
2023-02-23T19:48:10.611Z,10.01
2023-02-23T19:50:37.917Z,9.95
2023-02-23T19:53:05.180Z,9.93
2023-02-23T19:55:32.542Z,9.91
2023-02-23T19:57:59.786Z,9.80
2023-02-23T20:00:27.017Z,9.77
2023-02-23T20:02:56.981Z,9.70
2023-02-23T20:05:25.575Z,9.65
2023-02-23T20:07:53.068Z,9.61
2023-02-23T20:10:25.668Z,9.57
2023-02-23T20:12:53.416Z,9.57
2023-02-23T20:15:23.894Z,9.56
2023-02-23T20:17:51.616Z,9.51
2023-02-23T20:20:19.704Z,9.48
2023-02-23T20:22:52.113Z,9.42
2023-02-23T20:25:21.301Z,9.40
2023-02-23T20:27:51.219Z,9.42
2023-02-23T20:30:19.129Z,9.43
2023-02-23T20:32:47.993Z,9.47
2023-02-23T20:35:18.409Z,9.46
2023-02-23T20:37:45.683Z,9.41
2023-02-23T20:40:17.897Z,9.45
2023-02-23T20:42:47.897Z,9.46
2023-02-23T20:45:21.168Z,9.45
2023-02-23T20:47:54.201Z,9.45
2023-02-23T20:50:25.450Z,9.42
2023-02-23T20:52:53.459Z,9.47
2023-02-23T20:55:23.835Z,9.54
2023-02-23T20:57:52.276Z,9.49
2023-02-23T21:00:29.997Z,9.54
2023-02-23T21:02:58.744Z,9.55
2023-02-23T21:05:28.529Z,9.58
2023-02-23T21:08:04.131Z,9.65
2023-02-23T21:10:39.690Z,9.68
2023-02-23T21:13:10.715Z,9.73
2023-02-23T21:15:40.162Z,9.74
2023-02-23T21:18:08.255Z,9.74
2023-02-23T21:20:38.028Z,9.79
2023-02-23T21:23:05.511Z,9.79
2023-02-23T21:25:32.857Z,9.80
2023-02-23T21:28:02.768Z,9.85
2023-02-23T21:30:30.124Z,9.77
2023-02-23T21:32:57.861Z,9.75
2023-02-23T21:35:25.244Z,9.72
2023-02-23T21:37:52.732Z,9.68
2023-02-23T21:40:21.281Z,9.64
2023-02-23T21:42:50.237Z,9.63
2023-02-23T21:45:18.653Z,9.66
2023-02-23T21:47:47.156Z,9.64
2023-02-23T21:50:17.649Z,9.62
2023-02-23T21:52:48.656Z,9.65
2023-02-23T21:55:24.449Z,9.64
2023-02-23T21:57:52.243Z,9.59
2023-02-23T22:00:20.959Z,9.59
2023-02-23T22:02:49.419Z,9.63
2023-02-23T22:05:18.870Z,9.63
2023-02-23T22:07:51.765Z,9.67
2023-02-23T22:10:21.639Z,9.67
2023-02-23T22:12:50.340Z,9.65
2023-02-23T22:15:17.649Z,9.63
2023-02-23T22:17:45.038Z,9.63
2023-02-23T22:20:15.771Z,9.61
2023-02-23T22:22:43.277Z,9.56
2023-02-23T22:25:13.285Z,9.49
2023-02-23T22:27:42.744Z,9.40
2023-02-23T22:30:15.041Z,9.31
2023-02-23T22:32:43.596Z,9.29
2023-02-23T22:35:11.109Z,9.25
2023-02-23T22:37:39.059Z,9.26
2023-02-23T22:40:16.700Z,9.16
2023-02-23T22:42:48.380Z,9.09
2023-02-23T22:45:16.393Z,9.02
2023-02-23T22:47:43.706Z,8.94
2023-02-23T22:50:14.011Z,8.96
2023-02-23T22:52:43.156Z,9.00
2023-02-23T22:55:11.212Z,8.98
2023-02-23T22:57:39.968Z,8.96
2023-02-23T23:00:15.151Z,8.96
2023-02-23T23:02:42.499Z,8.93
2023-02-23T23:05:10.046Z,8.89
2023-02-23T23:07:38.765Z,8.88
2023-02-23T23:10:09.479Z,8.86
2023-02-23T23:12:36.985Z,8.79
2023-02-23T23:15:04.470Z,8.79
2023-02-23T23:17:32.997Z,8.73
2023-02-23T23:20:00.414Z,8.69
2023-02-23T23:22:28.135Z,8.69
2023-02-23T23:24:57.070Z,8.66
2023-02-23T23:27:24.843Z,8.60
2023-02-23T23:29:53.297Z,8.57
2023-02-23T23:32:28.512Z,8.60
2023-02-23T23:34:58.505Z,8.56
2023-02-23T23:37:29.388Z,8.57
2023-02-23T23:40:02.069Z,8.55
2023-02-23T23:42:32.018Z,8.52
2023-02-23T23:44:59.189Z,8.51
2023-02-23T23:47:26.811Z,8.47
2023-02-23T23:49:54.671Z,8.25
2023-02-23T23:52:21.864Z,8.11
2023-02-23T23:54:49.277Z,8.10
2023-02-23T23:57:18.248Z,7.93
2023-02-23T23:59:45.780Z,7.93
